createdAt,value
2019-05-07T00:01:17.896Z,3.73
2019-05-07T00:03:48.283Z,3.10
2019-05-07T00:06:18.751Z,3.30
2019-05-07T00:08:49.347Z,3.60
2019-05-07T00:11:22.102Z,3.10
2019-05-07T00:13:52.244Z,3.87
2019-05-07T00:16:22.452Z,3.63
2019-05-07T00:18:52.527Z,3.30
2019-05-07T00:21:23.293Z,3.23
2019-05-07T00:23:53.007Z,3.40
2019-05-07T00:26:23.383Z,5.07
2019-05-07T00:28:53.890Z,3.87
2019-05-07T00:31:24.340Z,4.20
2019-05-07T00:33:54.778Z,4.83
2019-05-07T00:36:35.329Z,3.63
2019-05-07T00:39:15.281Z,3.63
2019-05-07T00:41:52.172Z,3.73
2019-05-07T00:44:22.079Z,3.67
2019-05-07T00:46:52.510Z,3.60
2019-05-07T00:49:22.126Z,3.83
2019-05-07T00:51:52.203Z,3.50
2019-05-07T00:54:23.005Z,3.70
2019-05-07T00:56:52.360Z,3.70
2019-05-07T00:59:22.713Z,4.10
2019-05-07T01:01:53.252Z,5.83
2019-05-07T01:04:23.631Z,4.17
2019-05-07T01:06:54.072Z,3.77
2019-05-07T01:09:24.572Z,4.10
2019-05-07T01:11:55.180Z,4.00
2019-05-07T01:14:25.632Z,3.83
2019-05-07T01:16:55.964Z,3.70
2019-05-07T01:19:26.377Z,3.83
2019-05-07T01:21:56.825Z,4.30
2019-05-07T01:24:27.264Z,5.10
2019-05-07T01:26:57.564Z,4.97
2019-05-07T01:29:27.311Z,4.43
2019-05-07T01:32:03.554Z,4.10
2019-05-07T01:34:42.973Z,4.73
2019-05-07T01:37:12.419Z,5.00
2019-05-07T01:39:42.180Z,5.10
2019-05-07T01:42:12.790Z,5.47
2019-05-07T01:44:42.415Z,5.00
2019-05-07T01:47:13.164Z,4.80
2019-05-07T01:49:43.715Z,4.53
2019-05-07T01:52:14.182Z,4.60
2019-05-07T01:54:47.182Z,4.77
2019-05-07T01:57:15.358Z,4.90
2019-05-07T01:59:45.695Z,4.73
2019-05-07T02:02:22.945Z,4.67
2019-05-07T02:04:57.737Z,4.20
2019-05-07T02:07:34.306Z,3.60
2019-05-07T02:10:24.295Z,4.37
2019-05-07T02:12:54.864Z,4.30
2019-05-07T02:15:25.280Z,4.40
2019-05-07T02:17:55.774Z,4.17
2019-05-07T02:20:26.175Z,4.93
2019-05-07T02:22:56.532Z,4.50
2019-05-07T02:25:27.235Z,4.47
2019-05-07T02:27:57.716Z,4.60
2019-05-07T02:30:28.193Z,4.57
2019-05-07T02:32:57.876Z,4.50
2019-05-07T02:35:27.503Z,4.40
2019-05-07T02:38:03.144Z,4.40
2019-05-07T02:40:37.908Z,3.70
2019-05-07T02:43:08.514Z,4.33
2019-05-07T02:45:44.003Z,4.27
2019-05-07T02:48:13.635Z,4.70
2019-05-07T02:50:53.841Z,3.90
2019-05-07T02:53:28.516Z,4.47
2019-05-07T02:55:58.977Z,4.83
2019-05-07T02:58:32.856Z,4.90
2019-05-07T03:01:00.161Z,4.50
2019-05-07T03:03:33.235Z,4.10
2019-05-07T03:06:02.941Z,4.67
2019-05-07T03:08:33.026Z,4.13
2019-05-07T03:11:03.374Z,4.57
2019-05-07T03:13:33.862Z,4.60
2019-05-07T03:16:03.921Z,5.03
2019-05-07T03:18:34.316Z,5.67
2019-05-07T03:21:12.563Z,5.53
2019-05-07T03:24:16.086Z,4.40
2019-05-07T03:26:47.181Z,4.13
2019-05-07T03:29:23.627Z,4.20
2019-05-07T03:31:56.541Z,4.80
2019-05-07T03:35:06.834Z,4.13
2019-05-07T03:37:35.944Z,4.50
2019-05-07T03:40:03.772Z,4.30
2019-05-07T03:42:33.590Z,5.00
2019-05-07T03:45:17.020Z,4.30
2019-05-07T03:47:49.996Z,4.20
2019-05-07T03:50:23.094Z,4.70
2019-05-07T03:52:50.979Z,4.43
2019-05-07T03:55:23.399Z,4.10
2019-05-07T03:57:52.735Z,4.20
2019-05-07T04:00:23.919Z,4.30
2019-05-07T04:02:52.981Z,4.17
2019-05-07T04:05:23.177Z,4.67
2019-05-07T04:07:54.022Z,4.00
2019-05-07T04:10:23.609Z,3.97
2019-05-07T04:12:54.103Z,5.23
2019-05-07T04:15:24.480Z,4.67
2019-05-07T04:17:54.912Z,4.20
2019-05-07T04:20:25.367Z,4.10
2019-05-07T04:22:55.878Z,4.30
2019-05-07T04:25:34.311Z,4.10
2019-05-07T04:28:13.908Z,5.23
2019-05-07T04:30:43.871Z,4.50
2019-05-07T04:33:13.108Z,4.50
2019-05-07T04:35:47.591Z,4.20
2019-05-07T04:38:18.080Z,4.23
2019-05-07T04:40:48.341Z,4.30
2019-05-07T04:43:18.863Z,4.43
2019-05-07T04:45:49.500Z,4.33
2019-05-07T04:48:23.034Z,4.30
2019-05-07T04:50:53.916Z,5.00
2019-05-07T04:53:23.658Z,3.83
2019-05-07T04:55:53.549Z,4.50
2019-05-07T04:58:23.597Z,4.40
2019-05-07T05:00:53.797Z,3.87
2019-05-07T05:03:24.739Z,4.50
2019-05-07T05:05:55.423Z,3.97
2019-05-07T05:08:25.912Z,3.57
2019-05-07T05:10:56.357Z,4.00
2019-05-07T05:13:26.716Z,4.20
2019-05-07T05:15:57.280Z,4.37
2019-05-07T05:18:27.552Z,4.20
2019-05-07T05:21:02.900Z,4.17
2019-05-07T05:23:41.927Z,4.30
2019-05-07T05:26:12.511Z,4.20
2019-05-07T05:28:42.099Z,3.80
2019-05-07T05:31:12.750Z,4.67
2019-05-07T05:33:42.832Z,4.27
2019-05-07T05:36:12.789Z,4.30
2019-05-07T05:38:43.083Z,3.40
2019-05-07T05:41:13.676Z,4.70
2019-05-07T05:43:48.844Z,4.27
2019-05-07T05:46:19.538Z,4.03
2019-05-07T05:48:51.875Z,3.60
2019-05-07T05:51:26.139Z,3.87
2019-05-07T05:54:08.186Z,3.50
2019-05-07T05:56:44.867Z,3.83
2019-05-07T06:01:23.906Z,3.47
2019-05-07T06:04:17.368Z,3.60
2019-05-07T06:07:10.645Z,3.43
2019-05-07T06:09:37.688Z,3.03
2019-05-07T06:12:14.043Z,2.83
2019-05-07T06:14:53.927Z,2.87
2019-05-07T06:17:37.838Z,2.83
2019-05-07T06:20:13.776Z,2.40
2019-05-07T06:22:48.211Z,2.80
2019-05-07T06:25:24.751Z,3.00
2019-05-07T06:27:52.577Z,3.30
2019-05-07T06:30:22.832Z,2.90
2019-05-07T06:32:52.688Z,2.23
2019-05-07T06:35:23.143Z,2.23
2019-05-07T06:37:53.620Z,1.80
2019-05-07T06:40:29.560Z,2.10
2019-05-07T06:43:04.668Z,1.80
2019-05-07T06:45:39.359Z,1.67
2019-05-07T06:48:09.781Z,2.07
2019-05-07T06:50:40.344Z,1.87
2019-05-07T06:53:12.048Z,2.00
2019-05-07T06:55:42.771Z,2.00
2019-05-07T06:58:12.342Z,2.30
2019-05-07T07:00:47.955Z,2.73
2019-05-07T07:03:27.393Z,1.97
2019-05-07T07:06:03.043Z,2.00
2019-05-07T07:08:37.775Z,1.87
2019-05-07T07:11:18.230Z,2.20
2019-05-07T07:13:48.525Z,2.30
2019-05-07T07:16:18.886Z,2.37
2019-05-07T07:18:52.391Z,2.73
2019-05-07T07:21:21.843Z,3.17
2019-05-07T07:23:52.344Z,3.00
2019-05-07T07:26:22.043Z,2.90
2019-05-07T07:28:52.535Z,3.00
2019-05-07T07:31:28.445Z,3.50
2019-05-07T07:33:59.058Z,2.60
2019-05-07T07:36:31.902Z,3.97
2019-05-07T07:39:02.055Z,4.50
2019-05-07T07:41:36.023Z,4.73
2019-05-07T07:44:06.656Z,4.27
2019-05-07T07:46:36.592Z,4.77
2019-05-07T07:49:11.285Z,4.73
2019-05-07T07:51:41.749Z,4.30
2019-05-07T07:54:07.966Z,4.60
2019-05-07T07:56:52.378Z,3.80
2019-05-07T08:00:23.394Z,4.50
2019-05-07T08:02:57.432Z,4.43
2019-05-07T08:05:27.864Z,5.20
2019-05-07T08:07:58.385Z,5.20
2019-05-07T08:10:28.804Z,4.70
2019-05-07T08:12:59.299Z,5.70
2019-05-07T08:15:29.567Z,5.50
2019-05-07T08:18:00.082Z,7.10
2019-05-07T08:20:32.598Z,5.00
2019-05-07T08:23:02.726Z,6.23
2019-05-07T08:25:36.671Z,6.00
2019-05-07T08:28:07.176Z,5.77
2019-05-07T08:30:37.364Z,4.83
2019-05-07T08:33:14.648Z,5.50
2019-05-07T08:35:48.688Z,4.80
2019-05-07T08:38:19.105Z,4.90
2019-05-07T08:40:49.436Z,5.60
2019-05-07T08:43:21.719Z,5.57
2019-05-07T08:45:54.999Z,5.33
2019-05-07T08:48:32.073Z,5.47
2019-05-07T08:51:02.545Z,6.13
2019-05-07T08:53:32.775Z,5.03
2019-05-07T08:56:03.301Z,5.33
2019-05-07T08:58:32.169Z,6.40
2019-05-07T09:01:03.064Z,6.30
2019-05-07T09:03:38.084Z,5.23
2019-05-07T09:06:08.576Z,6.07
2019-05-07T09:08:38.967Z,5.30
2019-05-07T09:11:09.464Z,5.83
2019-05-07T09:13:42.019Z,5.60
2019-05-07T09:16:12.715Z,5.23
2019-05-07T09:18:42.207Z,5.30
2019-05-07T09:21:12.529Z,5.33
2019-05-07T09:23:42.362Z,5.40
2019-05-07T09:26:13.859Z,5.23
2019-05-07T09:28:55.606Z,5.83
2019-05-07T09:31:32.092Z,5.37
2019-05-07T09:34:02.523Z,4.73
2019-05-07T09:36:34.936Z,5.17
2019-05-07T09:39:06.375Z,4.90
2019-05-07T09:41:36.835Z,5.20
2019-05-07T09:44:07.259Z,5.10
2019-05-07T09:46:37.661Z,4.70
2019-05-07T09:49:08.139Z,5.07
2019-05-07T09:51:38.544Z,4.30
2019-05-07T09:54:08.965Z,5.53
2019-05-07T09:56:39.634Z,5.27
2019-05-07T09:59:12.560Z,5.63
2019-05-07T10:01:41.801Z,4.90
2019-05-07T10:04:12.679Z,5.17
2019-05-07T10:06:43.173Z,5.17
2019-05-07T10:09:13.616Z,5.37
2019-05-07T10:11:48.160Z,5.23
2019-05-07T10:14:18.643Z,4.33
2019-05-07T10:16:56.034Z,5.30
2019-05-07T10:19:26.458Z,5.23
2019-05-07T10:21:56.893Z,5.10
2019-05-07T10:24:27.460Z,6.07
2019-05-07T10:26:57.960Z,5.90
2019-05-07T10:29:28.471Z,5.13
2019-05-07T10:31:58.944Z,5.50
2019-05-07T10:34:29.567Z,6.00
2019-05-07T10:37:00.023Z,5.43
2019-05-07T10:39:32.420Z,6.63
2019-05-07T10:42:01.840Z,6.13
2019-05-07T10:44:35.683Z,5.90
2019-05-07T10:47:12.106Z,7.37
2019-05-07T10:49:48.474Z,6.20
2019-05-07T10:52:18.889Z,7.50
2019-05-07T10:54:57.549Z,7.27
2019-05-07T10:57:19.704Z,7.17
2019-05-07T10:59:52.244Z,7.47
2019-05-07T11:02:23.831Z,7.50
2019-05-07T11:04:53.666Z,7.30
2019-05-07T11:07:23.968Z,6.73
2019-05-07T11:09:54.491Z,7.60
2019-05-07T11:12:24.904Z,5.40
2019-05-07T11:14:55.371Z,6.80
2019-05-07T11:18:28.598Z,5.93
2019-05-07T11:20:59.119Z,5.70
2019-05-07T11:23:29.371Z,7.03
2019-05-07T11:25:59.886Z,7.23
2019-05-07T11:28:32.278Z,7.23
2019-05-07T11:31:02.067Z,6.67
2019-05-07T11:33:32.533Z,6.33
2019-05-07T11:36:02.294Z,6.57
2019-05-07T11:38:33.437Z,5.80
2019-05-07T11:41:02.952Z,4.93
2019-05-07T11:44:08.498Z,5.43
2019-05-07T11:47:43.846Z,5.60
2019-05-07T11:50:33.148Z,5.30
2019-05-07T11:53:06.471Z,6.10
2019-05-07T11:55:36.194Z,5.13
2019-05-07T11:58:06.508Z,5.20
2019-05-07T12:00:54.684Z,5.73
2019-05-07T12:03:25.009Z,5.77
2019-05-07T12:05:55.368Z,5.73
2019-05-07T12:08:37.444Z,7.33
2019-05-07T12:10:56.582Z,6.47
2019-05-07T12:13:27.355Z,5.37
2019-05-07T12:15:57.848Z,5.37
2019-05-07T12:18:28.469Z,6.10
2019-05-07T12:20:58.865Z,4.90
2019-05-07T12:23:29.328Z,4.47
2019-05-07T12:25:59.655Z,5.30
2019-05-07T12:28:29.967Z,4.87
2019-05-07T12:31:07.258Z,4.70
2019-05-07T12:33:57.673Z,3.80
2019-05-07T12:36:28.189Z,4.53
2019-05-07T12:38:58.537Z,5.13
2019-05-07T12:41:33.178Z,4.47
2019-05-07T12:44:02.628Z,5.27
2019-05-07T12:46:33.343Z,5.17
2019-05-07T12:49:03.443Z,5.70
2019-05-07T12:51:38.097Z,5.97
2019-05-07T12:54:25.353Z,7.37
2019-05-07T12:56:55.739Z,8.13
2019-05-07T12:59:26.159Z,7.80
2019-05-07T13:02:01.650Z,8.73
2019-05-07T13:04:32.578Z,8.53
2019-05-07T13:07:06.809Z,10.50
2019-05-07T13:09:37.359Z,10.77
2019-05-07T13:12:07.843Z,9.30
2019-05-07T13:14:38.272Z,9.97
2019-05-07T13:17:08.673Z,8.67
2019-05-07T13:19:39.281Z,6.17
2019-05-07T13:22:08.780Z,5.30
2019-05-07T13:24:39.243Z,5.47
2019-05-07T13:27:09.488Z,5.00
2019-05-07T13:29:42.501Z,5.17
2019-05-07T13:32:12.191Z,4.20
2019-05-07T13:34:42.826Z,6.17
2019-05-07T13:37:17.042Z,6.50
2019-05-07T13:39:52.695Z,7.20
2019-05-07T13:42:28.080Z,5.87
2019-05-07T13:45:02.890Z,6.03
2019-05-07T13:47:35.760Z,6.17
2019-05-07T13:50:07.162Z,6.67
2019-05-07T13:52:37.776Z,6.67
2019-05-07T13:55:08.812Z,6.17
2019-05-07T13:57:39.281Z,6.87
2019-05-07T14:00:12.897Z,6.67
2019-05-07T14:02:42.166Z,8.40
2019-05-07T14:05:14.240Z,7.53
2019-05-07T14:07:42.927Z,7.37
2019-05-07T14:10:13.784Z,8.27
2019-05-07T14:12:44.299Z,7.77
2019-05-07T14:15:14.988Z,7.90
2019-05-07T14:17:45.415Z,7.33
2019-05-07T14:20:16.109Z,8.07
2019-05-07T14:22:46.379Z,8.40
2019-05-07T14:25:16.949Z,7.00
2019-05-07T14:27:47.163Z,7.23
2019-05-07T14:30:18.042Z,7.00
2019-05-07T14:32:52.646Z,7.10
2019-05-07T14:35:27.876Z,6.60
2019-05-07T14:38:01.991Z,6.27
2019-05-07T14:40:32.476Z,8.77
2019-05-07T14:43:12.573Z,8.77
2019-05-07T14:45:42.241Z,7.10
2019-05-07T14:48:12.707Z,8.07
2019-05-07T14:50:44.909Z,9.53
2019-05-07T14:53:13.652Z,9.07
2019-05-07T14:55:44.125Z,7.73
2019-05-07T14:58:14.596Z,9.00
2019-05-07T15:00:44.467Z,10.33
2019-05-07T15:03:14.887Z,10.70
2019-05-07T15:05:45.368Z,11.97
2019-05-07T15:08:15.863Z,11.83
2019-05-07T15:10:46.348Z,12.37
2019-05-07T15:13:16.751Z,13.50
2019-05-07T15:15:47.193Z,13.97
2019-05-07T15:18:23.256Z,12.20
2019-05-07T15:20:53.837Z,12.47
2019-05-07T15:23:29.710Z,12.47
2019-05-07T15:26:02.673Z,13.00
2019-05-07T15:28:32.173Z,13.30
2019-05-07T15:31:12.092Z,12.60
2019-05-07T15:33:41.829Z,12.67
2019-05-07T15:36:11.968Z,12.17
2019-05-07T15:38:42.917Z,10.80
2019-05-07T15:41:12.040Z,10.53
2019-05-07T15:43:45.858Z,10.67
2019-05-07T15:46:13.111Z,10.23
2019-05-07T15:48:43.738Z,9.90
2019-05-07T15:51:16.533Z,9.00
2019-05-07T15:53:48.951Z,8.73
2019-05-07T15:56:18.639Z,9.70
2019-05-07T15:58:49.072Z,9.00
2019-05-07T16:01:22.013Z,8.80
2019-05-07T16:03:54.379Z,8.27
2019-05-07T16:06:22.022Z,8.80
2019-05-07T16:08:53.285Z,7.30
2019-05-07T16:11:23.697Z,7.57
2019-05-07T16:13:59.019Z,8.47
2019-05-07T16:16:29.597Z,8.40
2019-05-07T16:19:05.645Z,8.77
2019-05-07T16:21:36.031Z,8.53
2019-05-07T16:24:06.553Z,9.30
2019-05-07T16:26:37.053Z,8.87
2019-05-07T16:29:07.435Z,8.73
2019-05-07T16:31:39.307Z,9.63
2019-05-07T16:34:09.684Z,7.70
2019-05-07T16:36:41.916Z,8.67
2019-05-07T16:39:12.040Z,8.70
2019-05-07T16:41:42.231Z,8.40
2019-05-07T16:44:12.194Z,8.23
2019-05-07T16:46:42.416Z,8.17
2019-05-07T16:49:12.687Z,8.33
2019-05-07T16:51:44.798Z,8.07
2019-05-07T16:54:13.562Z,7.43
2019-05-07T16:56:49.064Z,7.80
2019-05-07T16:59:19.375Z,9.03
2019-05-07T17:01:52.034Z,9.13
2019-05-07T17:04:20.168Z,9.10
2019-05-07T17:06:52.159Z,9.60
2019-05-07T17:09:22.315Z,9.73
2019-05-07T17:11:52.710Z,11.07
2019-05-07T17:14:21.939Z,9.40
2019-05-07T17:16:52.347Z,10.17
2019-05-07T17:19:22.737Z,10.13
2019-05-07T17:21:53.346Z,9.57
2019-05-07T17:24:23.648Z,10.47
2019-05-07T17:26:54.132Z,10.17
2019-05-07T17:29:24.656Z,11.43
2019-05-07T17:31:55.157Z,11.60
2019-05-07T17:34:25.751Z,12.43
2019-05-07T17:36:56.336Z,13.23
2019-05-07T17:39:26.619Z,14.23
2019-05-07T17:41:57.028Z,14.37
2019-05-07T17:44:27.332Z,13.27
2019-05-07T17:46:57.771Z,13.33
2019-05-07T17:49:28.280Z,13.43
2019-05-07T17:51:58.736Z,14.00
2019-05-07T17:54:29.040Z,14.47
2019-05-07T17:56:59.376Z,12.80
2019-05-07T17:59:31.693Z,11.30
2019-05-07T18:02:05.452Z,10.80
2019-05-07T18:04:50.541Z,11.23
2019-05-07T18:07:07.297Z,10.60
2019-05-07T18:09:37.717Z,11.10
2019-05-07T18:12:07.933Z,11.53
2019-05-07T18:14:38.093Z,11.47
2019-05-07T18:17:16.321Z,11.77
2019-05-07T18:19:48.677Z,12.27
2019-05-07T18:22:19.156Z,13.93
2019-05-07T18:24:49.514Z,10.97
2019-05-07T18:27:24.128Z,11.20
2019-05-07T18:29:54.424Z,10.97
2019-05-07T18:32:28.742Z,12.67
2019-05-07T18:34:59.417Z,10.70
2019-05-07T18:37:29.656Z,11.33
2019-05-07T18:40:02.362Z,11.27
2019-05-07T18:42:32.576Z,11.33
2019-05-07T18:45:02.123Z,11.67
2019-05-07T18:47:33.130Z,12.77
2019-05-07T18:50:02.861Z,11.33
2019-05-07T18:52:32.287Z,11.23
2019-05-07T18:55:08.334Z,11.57
2019-05-07T18:57:56.201Z,13.27
2019-05-07T19:00:31.770Z,12.10
2019-05-07T19:03:03.131Z,12.07
2019-05-07T19:05:31.731Z,12.07
2019-05-07T19:08:07.697Z,11.93
2019-05-07T19:10:33.022Z,12.77
2019-05-07T19:13:03.704Z,13.47
2019-05-07T19:15:34.215Z,14.80
2019-05-07T19:18:05.026Z,19.97
2019-05-07T19:20:36.199Z,21.40
2019-05-07T19:23:06.922Z,23.57
2019-05-07T19:25:49.340Z,29.47
2019-05-07T19:28:22.218Z,31.00
2019-05-07T19:30:52.734Z,28.80
2019-05-07T19:33:26.468Z,26.97
2019-05-07T19:35:52.755Z,23.17
2019-05-07T19:38:22.513Z,25.87
2019-05-07T19:40:53.200Z,25.17
2019-05-07T19:43:23.731Z,29.73
2019-05-07T19:45:54.176Z,29.03
2019-05-07T19:48:24.710Z,54.00
2019-05-07T19:50:56.168Z,38.30
2019-05-07T19:53:26.750Z,40.00
2019-05-07T19:56:02.107Z,32.50
2019-05-07T19:58:32.787Z,24.80
2019-05-07T20:01:03.156Z,27.43
2019-05-07T20:03:33.723Z,24.17
2019-05-07T20:06:04.197Z,27.73
2019-05-07T20:08:34.912Z,30.63
2019-05-07T20:11:11.930Z,33.17
2019-05-07T20:13:41.666Z,40.37
2019-05-07T20:16:13.954Z,37.70
2019-05-07T20:18:44.293Z,41.47
2019-05-07T20:21:14.772Z,41.17
2019-05-07T20:23:45.724Z,37.13
2019-05-07T20:26:16.112Z,32.97
2019-05-07T20:28:47.067Z,29.20
2019-05-07T20:31:16.801Z,24.07
2019-05-07T20:33:47.285Z,23.57
2019-05-07T20:36:17.960Z,31.73
2019-05-07T20:38:51.896Z,23.87
2019-05-07T20:41:20.029Z,21.00
2019-05-07T20:43:52.325Z,25.87
2019-05-07T20:46:21.045Z,36.17
2019-05-07T20:48:52.604Z,34.87
2019-05-07T20:51:23.155Z,45.73
2019-05-07T20:54:12.833Z,94.97
2019-05-07T20:56:46.702Z,69.47
2019-05-07T20:59:16.187Z,29.67
2019-05-07T21:01:46.860Z,23.40
2019-05-07T21:04:17.490Z,25.33
2019-05-07T21:06:48.063Z,21.30
2019-05-07T21:09:18.515Z,20.33
2019-05-07T21:11:49.127Z,20.00
2019-05-07T21:14:19.831Z,21.77
2019-05-07T21:16:51.856Z,19.90
2019-05-07T21:19:22.306Z,18.47
2019-05-07T21:21:51.680Z,18.73
2019-05-07T21:24:22.663Z,19.47
2019-05-07T21:26:53.182Z,31.23
2019-05-07T21:29:23.507Z,26.83
2019-05-07T21:31:54.155Z,25.13
2019-05-07T21:34:24.624Z,21.00
2019-05-07T21:36:54.985Z,17.83
2019-05-07T21:39:25.022Z,25.27
2019-05-07T21:41:55.488Z,25.53
2019-05-07T21:44:26.148Z,37.50
2019-05-07T21:46:56.699Z,33.27
2019-05-07T21:49:27.292Z,43.20
2019-05-07T21:51:57.685Z,40.20
2019-05-07T21:54:34.256Z,46.73
2019-05-07T21:58:12.676Z,39.73
2019-05-07T22:00:48.252Z,36.57
2019-05-07T22:03:18.957Z,42.70
2019-05-07T22:05:51.642Z,49.93
2019-05-07T22:08:21.908Z,48.03
2019-05-07T22:10:50.837Z,26.80
2019-05-07T22:13:22.041Z,20.20
2019-05-07T22:15:52.217Z,23.43
2019-05-07T22:18:22.646Z,35.53
2019-05-07T22:20:52.319Z,32.93
2019-05-07T22:23:24.767Z,28.47
2019-05-07T22:25:53.180Z,24.97
2019-05-07T22:28:23.608Z,26.97
2019-05-07T22:30:59.076Z,29.03
2019-05-07T22:33:34.219Z,24.97
2019-05-07T22:36:04.842Z,23.47
2019-05-07T22:38:35.393Z,23.17
2019-05-07T22:41:05.912Z,23.30
2019-05-07T22:43:36.429Z,25.07
2019-05-07T22:46:06.855Z,24.13
2019-05-07T22:48:37.447Z,25.20
2019-05-07T22:51:07.923Z,24.57
2019-05-07T22:53:38.320Z,27.43
2019-05-07T22:56:08.767Z,22.00
2019-05-07T22:58:43.700Z,20.80
2019-05-07T23:01:14.291Z,28.80
2019-05-07T23:03:44.663Z,39.23
2019-05-07T23:06:15.287Z,25.47
2019-05-07T23:08:45.796Z,26.80
2019-05-07T23:11:16.252Z,24.30
2019-05-07T23:13:46.851Z,19.73
2019-05-07T23:16:17.232Z,20.23
2019-05-07T23:18:47.597Z,20.13
2019-05-07T23:21:17.956Z,21.40
2019-05-07T23:23:48.451Z,21.30
2019-05-07T23:26:18.912Z,19.07
2019-05-07T23:28:51.330Z,19.00
2019-05-07T23:31:19.739Z,29.00
2019-05-07T23:33:52.167Z,29.23
2019-05-07T23:36:22.538Z,24.53
2019-05-07T23:38:52.085Z,23.67
2019-05-07T23:41:26.731Z,23.40
2019-05-07T23:44:02.730Z,23.77
2019-05-07T23:46:32.664Z,24.00
2019-05-07T23:49:02.967Z,22.97
2019-05-07T23:51:33.417Z,23.07
2019-05-07T23:54:03.963Z,21.40
2019-05-07T23:56:34.472Z,20.40
2019-05-07T23:59:04.939Z,23.50
